createdAt,value
2023-02-18T00:00:50.589Z,88.18
2023-02-18T00:01:50.591Z,88.28
2023-02-18T00:02:52.654Z,88.18
2023-02-18T00:03:50.689Z,88.49
2023-02-18T00:04:50.568Z,88.49
2023-02-18T00:05:50.537Z,88.18
2023-02-18T00:06:50.534Z,88.28
2023-02-18T00:07:50.519Z,88.93
2023-02-18T00:08:50.533Z,88.79
2023-02-18T00:09:50.492Z,87.88
2023-02-18T00:10:50.480Z,88.69
2023-02-18T00:11:50.456Z,88.69
2023-02-18T00:12:50.449Z,88.69
2023-02-18T00:13:50.459Z,88.93
2023-02-18T00:14:50.427Z,88.93
2023-02-18T00:15:50.487Z,88.53
2023-02-18T00:16:50.404Z,88.90
2023-02-18T00:17:50.408Z,88.93
2023-02-18T00:18:50.394Z,88.79
2023-02-18T00:19:50.390Z,88.59
2023-02-18T00:20:50.372Z,88.73
2023-02-18T00:21:50.355Z,89.04
2023-02-18T00:22:50.336Z,88.69
2023-02-18T00:23:50.408Z,88.69
2023-02-18T00:24:50.319Z,88.73
2023-02-18T00:25:50.297Z,88.73
2023-02-18T00:26:50.292Z,88.39
2023-02-18T00:27:50.276Z,88.39
2023-02-18T00:28:50.296Z,89.00
2023-02-18T00:29:50.269Z,88.73
2023-02-18T00:30:50.282Z,88.73
2023-02-18T00:31:50.330Z,89.04
2023-02-18T00:32:50.249Z,89.14
2023-02-18T00:33:50.217Z,88.69
2023-02-18T00:34:50.216Z,89.04
2023-02-18T00:35:50.210Z,89.34
2023-02-18T00:36:50.178Z,89.34
2023-02-18T00:37:50.171Z,88.73
2023-02-18T00:38:50.186Z,88.84
2023-02-18T00:39:50.146Z,88.59
2023-02-18T00:40:50.144Z,88.84
2023-02-18T00:41:50.118Z,88.84
2023-02-18T00:42:50.122Z,88.84
2023-02-18T00:43:50.124Z,88.84
2023-02-18T00:44:50.100Z,88.63
2023-02-18T00:45:50.075Z,89.14
2023-02-18T00:46:50.165Z,88.84
2023-02-18T00:47:50.070Z,88.73
2023-02-18T00:48:50.058Z,88.93
2023-02-18T00:49:50.046Z,88.59
2023-02-18T00:50:50.035Z,88.93
2023-02-18T00:51:50.040Z,88.93
2023-02-18T00:52:49.997Z,88.93
2023-02-18T00:53:50.006Z,88.84
2023-02-18T00:54:49.973Z,88.53
2023-02-18T00:55:49.969Z,89.04
2023-02-18T00:56:49.962Z,89.04
2023-02-18T00:57:49.946Z,89.04
2023-02-18T00:58:49.973Z,89.04
2023-02-18T00:59:49.943Z,89.04
2023-02-18T01:00:49.902Z,89.04
2023-02-18T01:01:49.966Z,88.90
2023-02-18T01:02:49.894Z,89.04
2023-02-18T01:03:49.889Z,88.93
2023-02-18T01:04:49.942Z,89.00
2023-02-18T01:05:49.858Z,89.04
2023-02-18T01:06:49.852Z,88.43
2023-02-18T01:07:49.854Z,89.25
2023-02-18T01:08:49.854Z,88.73
2023-02-18T01:09:49.829Z,88.84
2023-02-18T01:10:49.811Z,88.73
2023-02-18T01:11:49.792Z,88.84
2023-02-18T01:12:49.804Z,88.84
2023-02-18T01:13:49.767Z,88.93
2023-02-18T01:14:49.778Z,88.84
2023-02-18T01:15:49.795Z,88.90
2023-02-18T01:16:49.728Z,89.45
2023-02-18T01:17:49.733Z,89.25
2023-02-18T01:18:49.735Z,89.14
2023-02-18T01:19:49.700Z,89.14
2023-02-18T01:20:49.686Z,89.34
2023-02-18T01:21:49.691Z,89.45
2023-02-18T01:22:49.676Z,89.04
2023-02-18T01:23:49.705Z,89.25
2023-02-18T01:24:49.652Z,89.25
2023-02-18T01:25:49.636Z,88.73
2023-02-18T01:26:49.636Z,89.75
2023-02-18T01:27:49.625Z,89.65
2023-02-18T01:28:49.622Z,89.34
2023-02-18T01:29:49.588Z,89.55
2023-02-18T01:30:51.369Z,89.45
2023-02-18T01:31:49.752Z,89.25
2023-02-18T01:32:49.549Z,89.45
2023-02-18T01:33:49.572Z,89.45
2023-02-18T01:34:49.543Z,89.65
2023-02-18T01:35:49.534Z,89.45
2023-02-18T01:36:49.522Z,89.14
2023-02-18T01:37:49.504Z,89.96
2023-02-18T01:38:49.497Z,89.86
2023-02-18T01:39:49.516Z,89.55
2023-02-18T01:40:49.477Z,89.25
2023-02-18T01:41:49.450Z,89.04
2023-02-18T01:42:49.435Z,89.25
2023-02-18T01:43:49.428Z,89.25
2023-02-18T01:44:49.456Z,89.34
2023-02-18T01:45:49.434Z,89.04
2023-02-18T01:46:49.441Z,89.14
2023-02-18T01:47:49.380Z,89.28
2023-02-18T01:48:49.378Z,89.55
2023-02-18T01:49:49.373Z,89.55
2023-02-18T01:50:49.343Z,89.65
2023-02-18T01:51:49.352Z,89.55
2023-02-18T01:52:49.334Z,89.59
2023-02-18T01:53:49.331Z,90.06
2023-02-18T01:54:49.309Z,89.75
2023-02-18T01:55:49.324Z,90.26
2023-02-18T01:56:49.299Z,90.26
2023-02-18T01:57:49.280Z,89.86
2023-02-18T01:58:49.265Z,89.96
2023-02-18T01:59:49.244Z,89.96
2023-02-18T02:00:49.260Z,89.75
2023-02-18T02:01:49.264Z,90.47
2023-02-18T02:02:49.231Z,90.71
2023-02-18T02:03:49.199Z,90.57
2023-02-18T02:04:49.204Z,90.57
2023-02-18T02:05:49.189Z,90.71
2023-02-18T02:06:49.211Z,90.67
2023-02-18T02:07:49.165Z,90.51
2023-02-18T02:08:49.170Z,91.33
2023-02-18T02:09:49.137Z,90.92
2023-02-18T02:10:49.129Z,91.33
2023-02-18T02:11:49.178Z,91.28
2023-02-18T02:12:49.106Z,90.92
2023-02-18T02:13:49.107Z,91.22
2023-02-18T02:14:49.071Z,91.83
2023-02-18T02:15:49.081Z,91.33
2023-02-18T02:16:49.067Z,92.04
2023-02-18T02:17:49.063Z,91.22
2023-02-18T02:18:49.040Z,91.33
2023-02-18T02:19:49.018Z,92.04
2023-02-18T02:20:49.020Z,91.43
2023-02-18T02:21:49.016Z,91.43
2023-02-18T02:22:49.002Z,91.63
2023-02-18T02:23:48.974Z,91.22
2023-02-18T02:24:48.977Z,91.22
2023-02-18T02:25:48.966Z,91.33
2023-02-18T02:26:48.944Z,91.63
2023-02-18T02:27:48.952Z,91.22
2023-02-18T02:28:48.974Z,91.43
2023-02-18T02:29:48.906Z,91.12
2023-02-18T02:30:48.915Z,91.33
2023-02-18T02:31:49.000Z,91.33
2023-02-18T02:32:48.871Z,91.22
2023-02-18T02:33:48.860Z,91.02
2023-02-18T02:34:48.857Z,90.81
2023-02-18T02:35:48.853Z,91.12
2023-02-18T02:36:48.829Z,91.33
2023-02-18T02:37:48.832Z,90.92
2023-02-18T02:38:48.803Z,91.43
2023-02-18T02:39:48.825Z,90.92
2023-02-18T02:40:48.782Z,91.43
2023-02-18T02:41:48.816Z,90.92
2023-02-18T02:42:48.764Z,91.22
2023-02-18T02:43:48.903Z,91.02
2023-02-18T02:44:48.771Z,91.02
2023-02-18T02:45:48.823Z,91.12
2023-02-18T02:46:48.719Z,91.02
2023-02-18T02:47:48.707Z,90.81
2023-02-18T02:48:48.707Z,91.02
2023-02-18T02:49:48.726Z,91.22
2023-02-18T02:50:48.678Z,91.33
2023-02-18T02:51:48.666Z,91.12
2023-02-18T02:52:48.649Z,90.81
2023-02-18T02:53:48.671Z,90.81
2023-02-18T02:54:48.677Z,91.22
2023-02-18T02:55:48.651Z,91.12
2023-02-18T02:56:48.640Z,91.22
2023-02-18T02:57:48.616Z,90.98
2023-02-18T02:58:48.592Z,90.98
2023-02-18T02:59:48.611Z,91.12
2023-02-18T03:00:48.612Z,91.02
2023-02-18T03:01:48.568Z,90.98
2023-02-18T03:02:48.574Z,90.81
2023-02-18T03:03:48.532Z,91.22
2023-02-18T03:04:48.515Z,91.02
2023-02-18T03:05:48.510Z,91.18
2023-02-18T03:06:48.533Z,90.71
2023-02-18T03:07:48.504Z,91.12
2023-02-18T03:08:48.484Z,91.08
2023-02-18T03:09:48.478Z,91.08
2023-02-18T03:10:48.449Z,91.02
2023-02-18T03:11:48.457Z,91.28
2023-02-18T03:12:48.465Z,91.08
2023-02-18T03:13:48.447Z,91.02
2023-02-18T03:14:48.419Z,90.98
2023-02-18T03:15:48.437Z,90.98
2023-02-18T03:16:48.417Z,91.08
2023-02-18T03:17:48.397Z,91.18
2023-02-18T03:18:48.407Z,90.88
2023-02-18T03:19:48.367Z,90.98
2023-02-18T03:20:48.352Z,91.39
2023-02-18T03:21:48.347Z,91.63
2023-02-18T03:22:48.315Z,92.00
2023-02-18T03:23:48.309Z,92.00
2023-02-18T03:24:48.321Z,92.10
2023-02-18T03:25:48.285Z,91.39
2023-02-18T03:26:48.275Z,91.89
2023-02-18T03:27:48.289Z,91.69
2023-02-18T03:28:48.266Z,91.59
2023-02-18T03:29:48.280Z,91.63
2023-02-18T03:30:48.238Z,91.74
2023-02-18T03:31:48.356Z,91.63
2023-02-18T03:32:48.223Z,92.00
2023-02-18T03:33:48.198Z,91.74
2023-02-18T03:34:48.208Z,91.39
2023-02-18T03:35:48.188Z,91.83
2023-02-18T03:36:48.167Z,91.94
2023-02-18T03:37:48.155Z,91.79
2023-02-18T03:38:48.149Z,91.83
2023-02-18T03:39:48.201Z,91.59
2023-02-18T03:40:48.128Z,91.83
2023-02-18T03:41:48.117Z,92.30
2023-02-18T03:42:48.097Z,92.45
2023-02-18T03:43:48.083Z,92.35
2023-02-18T03:44:48.096Z,92.45
2023-02-18T03:45:48.104Z,92.24
2023-02-18T03:46:48.070Z,92.24
2023-02-18T03:47:48.076Z,92.55
2023-02-18T03:48:48.054Z,92.35
2023-02-18T03:49:48.046Z,92.14
2023-02-18T03:50:48.036Z,92.35
2023-02-18T03:51:47.995Z,92.35
2023-02-18T03:52:47.978Z,91.94
2023-02-18T03:53:47.985Z,92.65
2023-02-18T03:54:47.986Z,92.24
2023-02-18T03:55:47.971Z,92.24
2023-02-18T03:56:47.934Z,92.35
2023-02-18T03:57:47.933Z,92.14
2023-02-18T03:58:47.911Z,92.35
2023-02-18T03:59:47.932Z,92.45
2023-02-18T04:00:47.897Z,92.45
2023-02-18T04:01:47.876Z,92.55
2023-02-18T04:02:47.862Z,92.24
2023-02-18T04:03:47.879Z,92.45
2023-02-18T04:04:47.856Z,92.24
2023-02-18T04:05:47.835Z,92.14
2023-02-18T04:06:47.823Z,91.94
2023-02-18T04:07:47.828Z,92.24
2023-02-18T04:08:47.794Z,92.04
2023-02-18T04:09:47.800Z,92.14
2023-02-18T04:10:47.811Z,91.74
2023-02-18T04:11:47.762Z,91.74
2023-02-18T04:12:47.749Z,92.04
2023-02-18T04:13:47.741Z,92.04
2023-02-18T04:14:47.725Z,92.04
2023-02-18T04:15:47.716Z,91.43
2023-02-18T04:16:47.817Z,91.22
2023-02-18T04:17:47.708Z,91.02
2023-02-18T04:18:47.684Z,90.81
2023-02-18T04:19:47.707Z,91.22
2023-02-18T04:20:47.663Z,90.92
2023-02-18T04:21:47.653Z,91.02
2023-02-18T04:22:47.655Z,91.43
2023-02-18T04:23:47.636Z,90.06
2023-02-18T04:24:47.630Z,90.41
2023-02-18T04:25:47.630Z,90.61
2023-02-18T04:26:47.593Z,90.57
2023-02-18T04:27:47.602Z,90.16
2023-02-18T04:28:47.566Z,90.20
2023-02-18T04:29:47.573Z,90.31
2023-02-18T04:30:47.697Z,89.75
2023-02-18T04:31:47.676Z,89.55
2023-02-18T04:32:47.541Z,89.69
2023-02-18T04:33:47.532Z,89.55
2023-02-18T04:34:47.499Z,89.04
2023-02-18T04:35:47.532Z,89.25
2023-02-18T04:36:47.491Z,89.04
2023-02-18T04:37:47.472Z,89.14
2023-02-18T04:38:47.480Z,89.65
2023-02-18T04:39:47.488Z,89.25
2023-02-18T04:40:47.455Z,89.96
2023-02-18T04:41:47.440Z,89.55
2023-02-18T04:42:47.417Z,90.06
2023-02-18T04:43:47.416Z,89.25
2023-02-18T04:44:47.756Z,89.34
2023-02-18T04:45:47.454Z,89.04
2023-02-18T04:46:47.390Z,89.18
2023-02-18T04:47:47.358Z,89.86
2023-02-18T04:48:47.367Z,89.34
2023-02-18T04:49:47.361Z,89.45
2023-02-18T04:50:47.323Z,90.06
2023-02-18T04:51:47.349Z,89.75
2023-02-18T04:52:47.311Z,89.04
2023-02-18T04:53:47.304Z,89.34
2023-02-18T04:54:47.291Z,89.45
2023-02-18T04:55:47.282Z,89.96
2023-02-18T04:56:47.266Z,89.25
2023-02-18T04:57:47.270Z,89.25
2023-02-18T04:58:47.247Z,89.45
2023-02-18T04:59:47.265Z,89.59
2023-02-18T05:00:47.210Z,90.06
2023-02-18T05:01:47.222Z,90.36
2023-02-18T05:02:47.208Z,89.90
2023-02-18T05:03:47.239Z,90.57
2023-02-18T05:04:47.193Z,90.67
2023-02-18T05:05:47.166Z,91.28
2023-02-18T05:06:47.144Z,91.22
2023-02-18T05:07:47.273Z,91.53
2023-02-18T05:08:47.135Z,92.41
2023-02-18T05:09:47.134Z,92.45
2023-02-18T05:10:47.105Z,93.57
2023-02-18T05:11:47.103Z,93.37
2023-02-18T05:12:47.104Z,94.12
2023-02-18T05:13:47.080Z,94.29
2023-02-18T05:14:47.087Z,94.23
2023-02-18T05:15:47.069Z,94.53
2023-02-18T05:16:47.039Z,94.53
2023-02-18T05:17:47.037Z,94.43
2023-02-18T05:18:47.032Z,95.35
2023-02-18T05:19:47.018Z,95.35
2023-02-18T05:20:47.012Z,95.15
2023-02-18T05:21:46.985Z,95.50
2023-02-18T05:22:46.985Z,95.45
2023-02-18T05:23:46.993Z,95.70
2023-02-18T05:24:46.951Z,96.21
2023-02-18T05:25:46.949Z,96.21
2023-02-18T05:26:46.926Z,96.21
2023-02-18T05:27:46.924Z,96.31
2023-02-18T05:28:46.936Z,96.58
2023-02-18T05:29:46.904Z,96.06
2023-02-18T05:30:46.927Z,96.31
2023-02-18T05:31:47.017Z,96.31
2023-02-18T05:32:46.875Z,96.21
2023-02-18T05:33:46.842Z,96.11
2023-02-18T05:34:46.836Z,96.42
2023-02-18T05:35:46.846Z,96.62
2023-02-18T05:36:46.816Z,96.51
2023-02-18T05:37:46.795Z,97.03
2023-02-18T05:38:46.789Z,96.72
2023-02-18T05:39:47.568Z,96.72
2023-02-18T05:40:46.799Z,96.92
2023-02-18T05:41:46.757Z,96.62
2023-02-18T05:42:46.760Z,96.31
2023-02-18T05:56:21.389Z,94.98
2023-02-18T05:58:25.688Z,94.98
2023-02-18T06:01:06.650Z,94.89
2023-02-18T06:02:51.350Z,94.58
2023-02-18T06:04:42.616Z,94.37
2023-02-18T06:06:54.507Z,93.86
2023-02-18T06:08:50.384Z,93.66
2023-02-18T06:11:04.080Z,92.74
2023-02-18T06:13:35.408Z,92.54
2023-02-18T06:16:15.139Z,93.25
2023-02-18T06:18:34.546Z,92.29
2023-02-18T06:20:50.377Z,92.33
2023-02-18T06:23:08.489Z,92.19
2023-02-18T06:25:28.707Z,92.80
2023-02-18T06:26:28.701Z,92.33
2023-02-18T06:27:28.673Z,92.23
2023-02-18T06:28:28.648Z,92.54
2023-02-18T06:29:28.714Z,92.19
2023-02-18T06:30:28.663Z,92.29
2023-02-18T06:31:28.858Z,92.33
2023-02-18T06:32:28.612Z,92.02
2023-02-18T06:33:28.598Z,92.29
2023-02-18T06:34:28.593Z,91.52
2023-02-18T06:35:28.593Z,90.90
2023-02-18T06:36:28.573Z,91.16
2023-02-18T06:37:28.542Z,91.16
2023-02-18T06:38:28.533Z,90.55
2023-02-18T06:39:28.517Z,90.66
2023-02-18T06:40:28.548Z,90.14
2023-02-18T06:41:28.513Z,90.14
2023-02-18T06:42:28.492Z,90.45
2023-02-18T06:43:28.471Z,89.73
2023-02-18T06:44:28.482Z,89.32
2023-02-18T06:45:28.469Z,89.63
2023-02-18T06:46:28.500Z,89.53
2023-02-18T06:47:28.438Z,89.02
2023-02-18T06:48:28.443Z,89.63
2023-02-18T06:49:28.410Z,88.92
2023-02-18T06:50:28.424Z,88.71
2023-02-18T06:51:28.391Z,88.82
2023-02-18T06:52:28.374Z,88.92
2023-02-18T06:53:28.372Z,88.41
2023-02-18T06:54:28.363Z,89.18
2023-02-18T06:55:28.361Z,88.10
2023-02-18T06:56:30.102Z,88.47
2023-02-18T06:57:28.314Z,88.71
2023-02-18T06:58:28.317Z,88.20
2023-02-18T06:59:28.302Z,87.96
2023-02-18T07:00:28.296Z,88.06
2023-02-18T07:01:28.317Z,88.10
2023-02-18T07:02:28.264Z,88.47
2023-02-18T07:03:28.292Z,88.06
2023-02-18T07:04:28.236Z,87.65
2023-02-18T07:05:28.222Z,87.65
2023-02-18T07:06:28.230Z,87.35
2023-02-18T07:07:28.212Z,86.94
2023-02-18T07:08:28.195Z,87.35
2023-02-18T07:09:28.190Z,86.77
2023-02-18T07:10:28.202Z,87.45
2023-02-18T07:11:28.158Z,87.14
2023-02-18T07:12:28.147Z,86.94
2023-02-18T07:13:28.144Z,87.24
2023-02-18T07:14:28.138Z,86.83
2023-02-18T07:15:28.147Z,86.83
2023-02-18T07:16:28.132Z,86.94
2023-02-18T07:17:28.105Z,87.04
2023-02-18T07:18:28.083Z,86.22
2023-02-18T07:19:28.062Z,86.53
2023-02-18T07:20:28.094Z,86.43
2023-02-18T07:21:28.054Z,86.43
2023-02-18T07:22:28.038Z,86.22
2023-02-18T07:23:28.034Z,86.43
2023-02-18T07:24:28.012Z,86.08
2023-02-18T07:25:27.996Z,85.77
2023-02-18T07:26:28.003Z,86.18
2023-02-18T07:27:27.974Z,85.77
2023-02-18T07:28:27.972Z,85.41
2023-02-18T07:29:27.952Z,85.51
2023-02-18T07:30:28.053Z,85.47
2023-02-18T07:31:28.036Z,85.82
2023-02-18T07:32:27.919Z,85.47
2023-02-18T07:33:27.930Z,85.47
2023-02-18T07:34:27.901Z,85.06
2023-02-18T07:35:27.882Z,85.77
2023-02-18T07:36:27.897Z,85.47
2023-02-18T07:37:27.884Z,85.47
2023-02-18T07:38:27.869Z,85.37
2023-02-18T07:39:27.840Z,85.57
2023-02-18T07:40:27.903Z,85.57
2023-02-18T07:41:27.816Z,85.27
2023-02-18T07:42:27.820Z,85.47
2023-02-18T07:43:27.805Z,85.47
2023-02-18T07:44:27.807Z,85.37
2023-02-18T07:45:27.803Z,85.27
2023-02-18T07:46:27.783Z,84.51
2023-02-18T07:47:27.748Z,84.61
2023-02-18T07:48:27.760Z,84.86
2023-02-18T07:49:27.763Z,84.34
2023-02-18T07:50:27.748Z,84.82
2023-02-18T07:51:27.716Z,84.75
2023-02-18T07:52:27.705Z,84.75
2023-02-18T07:53:27.681Z,84.72
2023-02-18T07:54:27.674Z,84.61
2023-02-18T07:55:27.675Z,84.55
2023-02-18T07:56:27.676Z,85.33
2023-02-18T07:57:27.655Z,85.27
2023-02-18T07:58:27.635Z,85.57
2023-02-18T07:59:27.629Z,85.43
2023-02-18T08:00:27.681Z,85.57
2023-02-18T08:01:27.621Z,85.47
2023-02-18T08:02:27.602Z,85.16
2023-02-18T08:03:27.600Z,85.37
2023-02-18T08:04:27.658Z,84.66
2023-02-18T08:05:27.579Z,84.59
2023-02-18T08:06:27.558Z,84.75
2023-02-18T08:07:27.537Z,84.90
2023-02-18T08:08:27.539Z,84.90
2023-02-18T08:09:27.502Z,84.80
2023-02-18T08:10:27.548Z,84.45
2023-02-18T08:11:27.499Z,84.59
2023-02-18T08:12:27.494Z,85.41
2023-02-18T08:13:27.459Z,85.30
2023-02-18T08:14:27.475Z,85.51
2023-02-18T08:15:27.449Z,85.71
2023-02-18T08:16:27.571Z,85.71
2023-02-18T08:17:27.434Z,86.53
2023-02-18T08:18:27.426Z,86.12
2023-02-18T08:19:27.406Z,86.12
2023-02-18T08:20:30.193Z,85.61
2023-02-18T08:21:27.409Z,85.30
2023-02-18T08:22:27.365Z,85.55
2023-02-18T08:23:27.364Z,84.74
2023-02-18T08:24:27.344Z,84.59
2023-02-18T08:25:29.802Z,84.42
2023-02-18T08:26:27.336Z,83.98
2023-02-18T08:27:27.308Z,84.12
2023-02-18T08:28:27.312Z,83.81
2023-02-18T08:29:27.301Z,84.42
2023-02-18T08:30:27.569Z,84.63
2023-02-18T08:31:27.472Z,84.74
2023-02-18T08:32:27.257Z,84.42
2023-02-18T08:33:27.251Z,84.63
2023-02-18T08:34:27.251Z,84.57
2023-02-18T08:35:27.220Z,84.57
2023-02-18T08:36:27.225Z,83.61
2023-02-18T08:37:27.233Z,83.44
2023-02-18T08:38:27.204Z,83.65
2023-02-18T08:39:27.185Z,83.44
2023-02-18T08:40:27.181Z,83.54
2023-02-18T08:41:27.149Z,83.75
2023-02-18T08:42:27.173Z,83.44
2023-02-18T08:43:27.140Z,83.34
2023-02-18T08:44:27.136Z,83.71
2023-02-18T08:45:27.117Z,82.22
2023-02-18T08:46:35.289Z,81.81
2023-02-18T08:48:18.499Z,81.67
2023-02-18T08:48:28.092Z,81.57
2023-02-18T08:49:27.092Z,81.60
2023-02-18T08:50:27.053Z,81.51
2023-02-18T08:51:27.036Z,82.01
2023-02-18T08:52:27.033Z,81.57
2023-02-18T08:53:27.050Z,82.01
2023-02-18T08:54:27.036Z,81.30
2023-02-18T08:55:27.001Z,80.65
2023-02-18T08:56:26.986Z,81.46
2023-02-18T08:57:26.972Z,80.75
2023-02-18T08:58:26.981Z,81.51
2023-02-18T08:59:26.940Z,81.51
2023-02-18T09:00:26.938Z,81.60
2023-02-18T09:01:26.951Z,81.57
2023-02-18T09:02:26.929Z,81.60
2023-02-18T09:03:26.917Z,81.77
2023-02-18T09:04:26.930Z,81.91
2023-02-18T09:05:26.893Z,81.77
2023-02-18T09:06:26.880Z,81.71
2023-02-18T09:07:26.867Z,82.01
2023-02-18T09:08:26.847Z,82.32
2023-02-18T09:09:26.867Z,82.69
2023-02-18T09:10:26.860Z,82.01
2023-02-18T09:11:26.827Z,82.01
2023-02-18T09:12:26.809Z,82.01
2023-02-18T09:13:26.787Z,81.87
2023-02-18T09:14:26.802Z,82.63
2023-02-18T09:15:26.839Z,81.71
2023-02-18T09:16:26.786Z,82.01
2023-02-18T09:17:26.755Z,81.30
2023-02-18T09:18:26.749Z,81.71
2023-02-18T09:19:26.725Z,82.12
2023-02-18T09:20:26.729Z,81.51
2023-02-18T09:21:26.714Z,82.12
2023-02-18T09:22:26.690Z,81.87
2023-02-18T09:23:26.680Z,81.87
2023-02-18T09:24:26.668Z,82.01
2023-02-18T09:25:26.676Z,82.32
2023-02-18T09:26:26.672Z,82.18
2023-02-18T09:27:26.630Z,81.87
2023-02-18T09:28:26.615Z,81.91
2023-02-18T09:29:26.624Z,81.91
2023-02-18T09:30:26.628Z,81.77
2023-02-18T09:31:26.710Z,82.12
2023-02-18T09:32:34.672Z,82.59
2023-02-18T09:33:27.573Z,81.67
2023-02-18T09:34:26.565Z,81.91
2023-02-18T09:35:26.553Z,81.87
2023-02-18T09:36:26.553Z,81.98
2023-02-18T09:37:26.524Z,81.87
2023-02-18T09:38:26.501Z,81.71
2023-02-18T09:39:26.538Z,81.81
2023-02-18T09:40:26.481Z,81.98
2023-02-18T09:41:26.548Z,82.08
2023-02-18T09:42:26.454Z,81.37
2023-02-18T09:43:26.447Z,81.67
2023-02-18T09:44:26.433Z,81.77
2023-02-18T09:45:26.514Z,80.85
2023-02-18T09:46:26.485Z,81.46
2023-02-18T09:47:26.462Z,81.46
2023-02-18T09:48:26.728Z,81.57
2023-02-18T09:49:26.397Z,81.32
2023-02-18T09:50:26.435Z,80.24
2023-02-18T09:51:26.402Z,81.05
2023-02-18T09:52:26.396Z,80.55
2023-02-18T09:53:26.449Z,80.91
2023-02-18T09:54:26.388Z,81.02
2023-02-18T09:55:26.345Z,80.55
2023-02-18T09:56:26.367Z,80.61
2023-02-18T09:57:26.391Z,79.73
2023-02-18T09:58:26.350Z,80.44
2023-02-18T09:59:26.430Z,80.20
2023-02-18T10:00:26.311Z,80.44
2023-02-18T10:01:26.316Z,80.44
2023-02-18T10:02:26.254Z,80.34
2023-02-18T10:03:26.258Z,80.71
2023-02-18T10:04:26.276Z,80.41
2023-02-18T10:05:26.248Z,80.04
2023-02-18T10:06:26.185Z,80.41
2023-02-18T10:07:28.380Z,79.73
2023-02-18T10:08:26.173Z,80.14
2023-02-18T10:09:26.169Z,80.04
2023-02-18T10:10:26.154Z,80.55
2023-02-18T10:11:26.157Z,80.04
2023-02-18T10:12:26.131Z,79.73
2023-02-18T10:13:26.132Z,80.14
2023-02-18T10:14:26.109Z,80.10
2023-02-18T10:15:26.104Z,80.10
2023-02-18T10:16:26.137Z,80.44
2023-02-18T10:17:26.084Z,80.61
2023-02-18T10:18:26.064Z,80.10
2023-02-18T10:19:26.056Z,80.34
2023-02-18T10:20:26.031Z,80.44
2023-02-18T10:21:26.047Z,80.65
2023-02-18T10:22:26.028Z,80.65
2023-02-18T10:23:26.015Z,81.05
2023-02-18T10:24:25.984Z,80.30
2023-02-18T10:25:25.990Z,81.12
2023-02-18T10:26:25.967Z,80.82
2023-02-18T10:27:26.010Z,80.51
2023-02-18T10:28:25.952Z,81.02
2023-02-18T10:29:25.980Z,81.23
2023-02-18T10:30:25.975Z,81.84
2023-02-18T10:31:26.073Z,81.02
2023-02-18T10:32:25.957Z,81.53
2023-02-18T10:33:25.925Z,81.43
2023-02-18T10:34:25.885Z,81.53
2023-02-18T10:35:25.882Z,81.63
2023-02-18T10:36:25.886Z,81.94
2023-02-18T10:37:25.857Z,81.84
2023-02-18T10:38:25.826Z,82.45
2023-02-18T10:39:25.847Z,82.24
2023-02-18T10:40:25.810Z,82.14
2023-02-18T10:41:25.812Z,82.04
2023-02-18T10:42:25.796Z,82.04
2023-02-18T10:43:25.793Z,82.04
2023-02-18T10:44:25.789Z,82.55
2023-02-18T10:45:25.773Z,82.45
2023-02-18T10:46:25.817Z,82.24
2023-02-18T10:47:25.731Z,82.45
2023-02-18T10:48:25.838Z,82.24
2023-02-18T10:49:25.724Z,82.04
2023-02-18T10:50:25.706Z,82.08
2023-02-18T10:51:25.689Z,82.04
2023-02-18T10:52:25.682Z,82.24
2023-02-18T10:53:25.662Z,82.14
2023-02-18T10:54:25.679Z,82.24
2023-02-18T10:55:25.650Z,82.14
2023-02-18T10:56:25.698Z,82.24
2023-02-18T10:57:25.631Z,82.04
2023-02-18T10:58:25.664Z,81.84
2023-02-18T10:59:25.615Z,82.35
2023-02-18T11:00:25.616Z,82.35
2023-02-18T11:01:25.664Z,82.14
2023-02-18T11:02:25.556Z,81.90
2023-02-18T11:03:25.547Z,82.14
2023-02-18T11:04:25.549Z,82.35
2023-02-18T11:05:25.536Z,82.04
2023-02-18T11:06:25.519Z,83.06
2023-02-18T11:07:25.504Z,83.57
2023-02-18T11:08:25.500Z,84.49
2023-02-18T11:09:25.492Z,84.80
2023-02-18T11:10:25.587Z,85.21
2023-02-18T11:11:25.456Z,85.41
2023-02-18T11:12:25.452Z,86.57
2023-02-18T11:13:25.445Z,86.77
2023-02-18T11:14:25.418Z,87.18
2023-02-18T11:15:25.409Z,88.04
2023-02-18T11:16:25.479Z,88.10
2023-02-18T11:17:25.409Z,88.92
2023-02-18T11:18:25.389Z,88.35
2023-02-18T11:19:25.376Z,88.45
2023-02-18T11:20:25.353Z,88.96
2023-02-18T11:21:25.355Z,89.26
2023-02-18T11:22:25.351Z,89.67
2023-02-18T11:23:25.345Z,89.58
2023-02-18T11:24:25.316Z,89.06
2023-02-18T11:25:25.310Z,89.37
2023-02-18T11:26:25.292Z,88.90
2023-02-18T11:27:25.302Z,89.17
2023-02-18T11:28:25.263Z,88.96
2023-02-18T11:29:25.269Z,88.65
2023-02-18T11:30:25.366Z,90.19
2023-02-18T11:31:25.349Z,89.26
2023-02-18T11:32:25.231Z,89.58
2023-02-18T11:33:25.240Z,89.37
2023-02-18T11:34:25.199Z,89.67
2023-02-18T11:35:25.190Z,89.63
2023-02-18T11:36:25.192Z,90.90
2023-02-18T11:37:25.176Z,90.08
2023-02-18T11:38:25.183Z,90.19
2023-02-18T11:39:25.139Z,90.70
2023-02-18T11:40:25.143Z,91.20
2023-02-18T11:41:25.137Z,91.31
2023-02-18T11:42:25.122Z,91.11
2023-02-18T11:43:25.107Z,90.90
2023-02-18T11:44:25.111Z,91.11
2023-02-18T11:45:25.073Z,91.15
2023-02-18T11:46:25.093Z,91.56
2023-02-18T11:47:25.073Z,91.15
2023-02-18T11:48:25.034Z,91.25
2023-02-18T11:49:25.077Z,91.05
2023-02-18T11:50:25.024Z,91.56
2023-02-18T11:51:25.019Z,91.96
2023-02-18T11:52:24.990Z,92.07
2023-02-18T11:53:24.993Z,92.17
2023-02-18T11:54:25.022Z,91.86
2023-02-18T11:55:25.003Z,92.62
2023-02-18T11:56:24.946Z,92.52
2023-02-18T11:57:24.955Z,92.78
2023-02-18T11:58:24.938Z,93.09
2023-02-18T11:59:24.916Z,93.03
2023-02-18T12:00:24.964Z,92.88
2023-02-18T12:01:24.921Z,93.74
2023-02-18T12:02:24.892Z,93.44
2023-02-18T12:03:24.898Z,93.44
2023-02-18T12:04:24.859Z,93.74
2023-02-18T12:05:24.980Z,94.26
2023-02-18T12:06:24.887Z,94.26
2023-02-18T12:07:24.833Z,94.11
2023-02-18T12:08:24.815Z,94.15
2023-02-18T12:09:24.810Z,94.26
2023-02-18T12:10:24.789Z,94.36
2023-02-18T12:11:24.784Z,94.56
2023-02-18T12:12:24.788Z,94.67
2023-02-18T12:13:24.784Z,94.56
2023-02-18T12:14:24.772Z,94.67
2023-02-18T12:15:24.763Z,94.56
2023-02-18T12:16:24.741Z,94.56
2023-02-18T12:17:24.736Z,94.67
2023-02-18T12:18:24.724Z,94.67
2023-02-18T12:19:24.717Z,94.87
2023-02-18T12:20:24.692Z,94.77
2023-02-18T12:21:24.708Z,94.56
2023-02-18T12:22:24.690Z,94.56
2023-02-18T12:23:24.693Z,94.56
2023-02-18T12:24:24.658Z,94.30
2023-02-18T12:25:24.647Z,94.36
2023-02-18T12:26:24.625Z,94.56
2023-02-18T12:27:24.613Z,94.67
2023-02-18T12:28:24.617Z,94.56
2023-02-18T12:29:24.594Z,94.56
2023-02-18T12:30:24.647Z,94.87
2023-02-18T12:31:24.736Z,94.77
2023-02-18T12:32:24.564Z,94.26
2023-02-18T12:33:24.598Z,94.67
2023-02-18T12:34:24.525Z,94.67
2023-02-18T12:35:24.516Z,94.46
2023-02-18T12:36:24.517Z,94.26
2023-02-18T12:37:24.514Z,94.46
2023-02-18T12:38:24.482Z,94.60
2023-02-18T12:39:24.490Z,94.46
2023-02-18T12:40:24.470Z,94.11
2023-02-18T12:41:24.473Z,94.32
2023-02-18T12:42:24.431Z,94.46
2023-02-18T12:43:24.436Z,94.67
2023-02-18T12:44:24.479Z,94.46
2023-02-18T12:45:24.407Z,94.21
2023-02-18T12:46:24.390Z,94.21
2023-02-18T12:47:24.506Z,93.70
2023-02-18T12:48:24.365Z,93.40
2023-02-18T12:49:24.380Z,93.50
2023-02-18T12:50:24.368Z,92.99
2023-02-18T12:51:24.333Z,93.95
2023-02-18T12:52:24.318Z,93.19
2023-02-18T12:53:24.333Z,94.01
2023-02-18T12:54:24.308Z,92.88
2023-02-18T12:55:24.325Z,93.09
2023-02-18T12:56:24.321Z,93.50
2023-02-18T12:57:24.272Z,93.29
2023-02-18T12:58:24.327Z,93.09
2023-02-18T12:59:24.259Z,92.99
2023-02-18T13:00:24.245Z,93.29
2023-02-18T13:01:24.309Z,93.29
2023-02-18T13:02:24.217Z,93.76
2023-02-18T13:03:24.246Z,93.05
2023-02-18T13:04:24.183Z,93.66
2023-02-18T13:05:24.192Z,93.66
2023-02-18T13:06:24.494Z,94.07
2023-02-18T13:07:24.180Z,93.45
2023-02-18T13:08:24.141Z,93.05
2023-02-18T13:09:24.155Z,93.05
2023-02-18T13:10:24.119Z,93.66
2023-02-18T13:11:24.122Z,93.45
2023-02-18T13:12:24.125Z,93.50
2023-02-18T13:13:24.092Z,93.45
2023-02-18T13:14:24.096Z,93.19
2023-02-18T13:15:24.062Z,93.60
2023-02-18T13:16:24.115Z,93.50
2023-02-18T13:17:24.088Z,94.01
2023-02-18T13:18:24.035Z,93.91
2023-02-18T13:19:24.031Z,94.01
2023-02-18T13:20:24.015Z,93.40
2023-02-18T13:21:23.998Z,93.40